createdAt,value
2023-03-26T00:00:17.969Z,4.30
2023-03-26T00:02:46.165Z,4.10
2023-03-26T00:05:17.052Z,4.40
2023-03-26T00:07:48.829Z,4.30
2023-03-26T00:10:19.101Z,4.53
2023-03-26T00:12:46.871Z,4.60
2023-03-26T00:15:14.705Z,5.32
2023-03-26T00:17:48.578Z,4.32
2023-03-26T00:20:16.631Z,4.68
2023-03-26T00:22:45.639Z,5.03
2023-03-26T00:25:13.969Z,5.55
2023-03-26T00:27:47.005Z,4.47
2023-03-26T00:30:17.262Z,3.90
2023-03-26T00:32:45.357Z,4.57
2023-03-26T00:35:26.116Z,4.20
2023-03-26T00:37:53.897Z,5.03
2023-03-26T00:40:23.647Z,4.53
2023-03-26T00:42:51.326Z,5.70
2023-03-26T00:45:32.120Z,4.40
2023-03-26T00:48:09.757Z,3.83
2023-03-26T00:50:37.866Z,4.10
2023-03-26T00:53:05.685Z,4.13
2023-03-26T00:55:35.618Z,3.83
2023-03-26T00:58:12.518Z,6.75
2023-03-26T01:00:48.805Z,3.85
2023-03-26T01:03:27.749Z,3.00
2023-03-26T01:06:05.031Z,2.92
2023-03-26T01:08:36.012Z,3.10
2023-03-26T01:11:14.291Z,3.65
2023-03-26T01:14:08.988Z,3.95
2023-03-26T01:16:46.431Z,2.97
2023-03-26T01:19:56.321Z,2.97
2023-03-26T01:22:29.729Z,3.40
2023-03-26T01:24:57.373Z,2.83
2023-03-26T01:27:33.771Z,3.35
2023-03-26T01:30:42.725Z,3.07
2023-03-26T01:33:34.178Z,3.05
2023-03-26T01:36:18.207Z,2.75
2023-03-26T01:42:31.310Z,3.00
2023-03-26T01:45:30.647Z,3.20
2023-03-26T01:49:22.142Z,2.95
2023-03-26T02:00:36.661Z,2.57
2023-03-26T02:03:28.268Z,2.93
2023-03-26T02:06:47.249Z,2.95
2023-03-26T02:12:11.431Z,2.85
2023-03-26T02:14:39.447Z,3.03
2023-03-26T02:17:13.465Z,2.97
2023-03-26T02:19:44.196Z,2.67
2023-03-26T02:22:32.439Z,2.50
2023-03-26T02:25:00.279Z,3.05
2023-03-26T02:27:50.603Z,2.78
2023-03-26T02:30:30.176Z,2.40
2023-03-26T02:33:00.432Z,2.85
2023-03-26T02:35:36.262Z,3.70
2023-03-26T02:38:04.877Z,2.70
2023-03-26T02:40:39.338Z,3.83
2023-03-26T02:43:08.294Z,2.80
2023-03-26T02:45:42.371Z,2.55
2023-03-26T02:48:50.847Z,3.10
2023-03-26T02:51:26.615Z,3.53
2023-03-26T02:54:22.403Z,4.70
2023-03-26T02:57:10.402Z,3.90
2023-03-26T03:00:19.814Z,3.78
2023-03-26T03:02:59.231Z,3.60
2023-03-26T03:05:34.016Z,3.47
2023-03-26T03:08:21.758Z,3.60
2023-03-26T03:11:09.416Z,3.00
2023-03-26T03:13:43.087Z,3.30
2023-03-26T03:16:13.873Z,2.78
2023-03-26T03:18:44.526Z,2.40
2023-03-26T03:21:12.335Z,2.45
2023-03-26T03:23:41.764Z,2.42
2023-03-26T03:26:16.406Z,2.40
2023-03-26T03:28:52.550Z,2.65
2023-03-26T03:31:26.003Z,3.10
2023-03-26T03:34:01.075Z,3.63
2023-03-26T03:36:39.817Z,3.05
2023-03-26T03:39:18.951Z,3.30
2023-03-26T03:41:51.597Z,2.70
2023-03-26T03:44:24.556Z,2.95
2023-03-26T03:46:57.483Z,2.67
2023-03-26T03:49:25.480Z,2.92
2023-03-26T03:51:53.876Z,2.80
2023-03-26T03:54:39.909Z,2.85
2023-03-26T03:57:27.469Z,2.50
2023-03-26T04:00:04.024Z,2.63
2023-03-26T04:02:43.259Z,2.50
2023-03-26T04:05:12.842Z,2.20
2023-03-26T04:07:52.016Z,2.67
2023-03-26T04:10:47.550Z,2.50
2023-03-26T04:13:44.867Z,2.72
2023-03-26T04:16:30.009Z,3.60
2023-03-26T04:19:03.956Z,2.87
2023-03-26T04:21:40.249Z,2.42
2023-03-26T04:24:13.836Z,2.75
2023-03-26T04:27:01.435Z,2.30
2023-03-26T04:29:43.136Z,2.33
2023-03-26T04:32:30.465Z,2.20
2023-03-26T04:35:08.410Z,2.17
2023-03-26T04:37:42.420Z,2.38
2023-03-26T04:40:22.639Z,2.15
2023-03-26T04:42:59.341Z,1.67
2023-03-26T04:45:49.898Z,1.73
2023-03-26T04:48:20.697Z,1.85
2023-03-26T04:50:49.574Z,2.20
2023-03-26T04:53:24.609Z,2.28
2023-03-26T04:56:05.395Z,1.90
2023-03-26T04:59:03.007Z,1.90
2023-03-26T05:01:38.055Z,1.80
2023-03-26T05:04:07.872Z,2.08
2023-03-26T05:06:38.818Z,3.22
2023-03-26T05:09:20.122Z,5.00
2023-03-26T05:12:09.096Z,4.50
2023-03-26T05:14:49.679Z,7.47
2023-03-26T05:17:29.564Z,5.90
2023-03-26T05:19:58.412Z,3.67
2023-03-26T05:22:28.730Z,2.63
2023-03-26T05:25:18.501Z,3.05
2023-03-26T05:27:48.405Z,4.63
2023-03-26T05:30:21.792Z,3.53
2023-03-26T05:32:55.608Z,3.70
2023-03-26T05:35:28.745Z,3.30
2023-03-26T05:37:57.804Z,3.50
2023-03-26T05:40:26.423Z,5.83
2023-03-26T05:43:00.414Z,5.30
2023-03-26T05:45:45.397Z,4.70
2023-03-26T05:48:27.426Z,3.28
2023-03-26T05:50:57.335Z,3.13
2023-03-26T05:53:30.701Z,2.63
2023-03-26T05:56:28.036Z,2.80
2023-03-26T05:59:16.759Z,3.97
2023-03-26T06:02:09.907Z,3.35
2023-03-26T06:05:01.457Z,2.88
2023-03-26T06:07:58.347Z,2.43
2023-03-26T06:10:32.605Z,2.90
2023-03-26T06:13:02.581Z,2.92
2023-03-26T06:15:30.631Z,3.20
2023-03-26T06:18:14.888Z,3.40
2023-03-26T06:21:19.221Z,3.07
2023-03-26T06:23:56.086Z,3.83
2023-03-26T06:26:48.913Z,3.72
2023-03-26T06:29:38.084Z,3.40
2023-03-26T06:32:33.756Z,3.33
2023-03-26T06:35:11.402Z,3.57
2023-03-26T06:37:39.126Z,3.17
2023-03-26T06:40:11.224Z,4.13
2023-03-26T06:43:10.144Z,4.18
2023-03-26T06:46:11.387Z,3.90
2023-03-26T06:48:40.084Z,9.77
2023-03-26T06:51:30.865Z,3.77
2023-03-26T06:54:07.671Z,3.10
2023-03-26T06:56:53.325Z,5.90
2023-03-26T06:59:47.232Z,5.00
2023-03-26T07:02:33.211Z,4.10
2023-03-26T07:05:19.629Z,4.70
2023-03-26T07:08:06.233Z,4.45
2023-03-26T07:10:52.497Z,3.63
2023-03-26T07:13:40.169Z,3.20
2023-03-26T07:16:43.029Z,3.30
2023-03-26T07:19:25.115Z,3.50
2023-03-26T07:21:55.727Z,3.10
2023-03-26T07:24:42.134Z,3.45
2023-03-26T07:27:47.167Z,3.17
2023-03-26T07:30:24.109Z,4.13
2023-03-26T07:33:51.558Z,4.38
2023-03-26T07:37:03.615Z,5.30
2023-03-26T07:39:59.155Z,4.90
2023-03-26T07:42:42.025Z,4.88
2023-03-26T07:45:39.973Z,5.13
2023-03-26T07:48:27.414Z,4.82
2023-03-26T07:51:13.140Z,5.60
2023-03-26T07:54:05.638Z,5.07
2023-03-26T07:56:48.500Z,4.97
2023-03-26T08:00:12.470Z,4.70
2023-03-26T08:03:24.867Z,5.25
2023-03-26T08:06:27.227Z,5.45
2023-03-26T08:09:45.020Z,5.33
2023-03-26T08:13:06.598Z,4.70
2023-03-26T08:16:06.866Z,5.55
2023-03-26T08:18:56.675Z,4.03
2023-03-26T08:21:29.070Z,4.22
2023-03-26T08:24:19.006Z,3.95
2023-03-26T08:27:00.048Z,2.80
2023-03-26T08:29:35.064Z,1.73
2023-03-26T08:32:08.924Z,2.00
2023-03-26T08:34:44.438Z,2.10
2023-03-26T08:37:14.873Z,2.03
2023-03-26T08:39:42.777Z,2.30
2023-03-26T08:42:25.613Z,1.53
2023-03-26T08:45:16.738Z,1.80
2023-03-26T08:48:22.055Z,1.40
2023-03-26T08:51:13.087Z,1.48
2023-03-26T08:53:43.501Z,1.50
2023-03-26T08:56:42.838Z,1.33
2023-03-26T08:59:34.217Z,1.15
2023-03-26T09:02:30.382Z,1.20
2023-03-26T09:05:17.767Z,1.20
2023-03-26T09:08:20.689Z,1.42
2023-03-26T09:11:09.426Z,1.35
2023-03-26T09:13:51.838Z,1.60
2023-03-26T09:16:45.524Z,2.20
2023-03-26T09:19:56.694Z,2.17
2023-03-26T09:22:42.875Z,2.00
2023-03-26T09:25:19.154Z,1.88
2023-03-26T09:27:49.587Z,2.08
2023-03-26T09:31:04.427Z,2.10
2023-03-26T09:34:02.754Z,1.98
2023-03-26T09:36:34.343Z,2.13
2023-03-26T09:39:30.061Z,2.30
2023-03-26T09:42:24.023Z,2.00
2023-03-26T09:45:20.562Z,1.60
2023-03-26T09:48:12.988Z,1.40
2023-03-26T09:51:04.822Z,1.30
2023-03-26T09:54:00.097Z,1.92
2023-03-26T09:59:42.893Z,1.20
2023-03-26T10:02:22.690Z,1.10
2023-03-26T10:05:38.473Z,1.20
2023-03-26T10:08:09.055Z,1.70
2023-03-26T10:10:46.307Z,2.17
2023-03-26T10:13:34.860Z,1.67
2023-03-26T10:16:24.184Z,1.63
2023-03-26T10:22:20.383Z,1.33
2023-03-26T10:25:19.176Z,1.17
2023-03-26T10:28:01.577Z,1.48
2023-03-26T10:30:48.071Z,6.40
2023-03-26T10:33:35.826Z,2.30
2023-03-26T10:36:29.909Z,1.80
2023-03-26T10:39:39.740Z,2.20
2023-03-26T10:42:27.503Z,1.80
2023-03-26T10:45:34.510Z,1.80
2023-03-26T10:48:27.337Z,1.33
2023-03-26T10:51:50.285Z,1.50
2023-03-26T10:55:00.679Z,2.53
2023-03-26T10:57:58.093Z,2.88
2023-03-26T11:00:40.738Z,1.85
2023-03-26T11:03:48.391Z,2.10
2023-03-26T11:06:45.886Z,1.70
2023-03-26T11:09:37.981Z,1.98
2023-03-26T11:12:48.983Z,1.75
2023-03-26T11:15:27.509Z,1.70
2023-03-26T11:18:26.061Z,1.45
2023-03-26T11:21:36.500Z,1.90
2023-03-26T11:24:43.895Z,2.80
2023-03-26T11:27:43.135Z,2.00
2023-03-26T11:30:33.466Z,1.30
2023-03-26T11:33:13.942Z,1.42
2023-03-26T11:35:56.843Z,1.60
2023-03-26T11:38:53.088Z,1.65
2023-03-26T11:41:33.504Z,2.83
2023-03-26T11:44:36.983Z,1.98
2023-03-26T11:47:21.629Z,2.10
2023-03-26T11:49:53.686Z,1.93
2023-03-26T11:52:26.907Z,6.38
2023-03-26T11:54:58.783Z,2.17
2023-03-26T11:57:43.729Z,1.70
2023-03-26T12:00:34.368Z,1.73
2023-03-26T12:03:35.327Z,1.55
2023-03-26T12:06:35.826Z,1.83
2023-03-26T12:09:22.413Z,2.13
2023-03-26T12:11:56.758Z,3.60
2023-03-26T12:14:33.706Z,2.40
2023-03-26T12:17:17.007Z,2.15
2023-03-26T12:20:01.318Z,2.13
2023-03-26T12:22:48.977Z,2.40
2023-03-26T12:25:40.636Z,2.07
2023-03-26T12:28:42.918Z,2.20
2023-03-26T12:31:19.426Z,2.60
2023-03-26T12:34:30.561Z,2.17
2023-03-26T12:37:11.359Z,1.83
2023-03-26T12:40:08.827Z,2.30
2023-03-26T12:44:50.583Z,2.00
2023-03-26T12:45:38.875Z,1.70
2023-03-26T12:48:15.814Z,1.42
2023-03-26T12:51:01.717Z,1.38
2023-03-26T12:54:04.669Z,1.10
2023-03-26T12:56:45.756Z,1.50
2023-03-26T12:59:38.585Z,1.40
2023-03-26T13:02:22.283Z,1.30
2023-03-26T13:05:39.169Z,1.30
2023-03-26T13:08:36.452Z,1.70
2023-03-26T13:11:13.455Z,1.20
2023-03-26T13:13:56.607Z,1.10
2023-03-26T13:16:49.923Z,1.10
2023-03-26T13:19:37.988Z,1.20
2023-03-26T13:22:33.908Z,1.40
2023-03-26T13:25:38.202Z,1.30
2023-03-26T13:28:29.005Z,1.60
2023-03-26T13:31:02.731Z,1.53
2023-03-26T13:33:44.538Z,1.40
2023-03-26T13:36:31.872Z,2.20
2023-03-26T13:39:46.212Z,1.50
2023-03-26T13:43:06.374Z,1.60
2023-03-26T13:45:45.012Z,1.70
2023-03-26T13:48:21.716Z,1.87
2023-03-26T13:51:20.042Z,1.97
2023-03-26T13:54:01.784Z,2.00
2023-03-26T13:56:49.928Z,1.70
2023-03-26T13:59:46.023Z,1.65
2023-03-26T14:02:50.380Z,1.70
2023-03-26T14:05:26.071Z,1.70
2023-03-26T14:08:05.957Z,1.47
2023-03-26T14:10:53.939Z,1.60
2023-03-26T14:13:35.621Z,1.80
2023-03-26T14:16:24.118Z,1.60
2023-03-26T14:19:11.977Z,11.35
2023-03-26T14:21:54.866Z,1.87
2023-03-26T14:24:50.234Z,1.73
2023-03-26T14:27:44.361Z,1.50
2023-03-26T14:30:40.193Z,1.63
2023-03-26T14:33:34.308Z,1.35
2023-03-26T14:36:11.671Z,1.38
2023-03-26T14:43:04.596Z,2.53
2023-03-26T14:45:59.401Z,1.70
2023-03-26T14:48:33.612Z,2.08
2023-03-26T14:51:37.310Z,1.80
2023-03-26T14:54:16.131Z,1.80
2023-03-26T14:56:54.823Z,1.53
2023-03-26T14:59:58.358Z,1.77
2023-03-26T15:02:46.557Z,1.90
2023-03-26T15:05:45.293Z,1.90
2023-03-26T15:08:34.247Z,1.60
2023-03-26T15:11:16.436Z,1.70
2023-03-26T15:14:12.994Z,1.93
2023-03-26T15:17:09.759Z,2.10
2023-03-26T15:19:52.764Z,2.08
2023-03-26T15:22:41.820Z,2.30
2023-03-26T15:25:18.680Z,2.45
2023-03-26T15:28:07.018Z,1.70
2023-03-26T15:34:41.169Z,1.73
2023-03-26T15:38:30.706Z,1.88
2023-03-26T15:41:11.736Z,2.70
2023-03-26T15:44:23.139Z,1.75
2023-03-26T15:47:20.201Z,1.83
2023-03-26T15:50:19.770Z,1.50
2023-03-26T15:53:23.744Z,1.50
2023-03-26T15:56:08.043Z,1.33
2023-03-26T15:58:49.263Z,1.52
2023-03-26T16:01:51.497Z,1.40
2023-03-26T16:04:26.655Z,1.30
2023-03-26T16:07:27.287Z,1.50
2023-03-26T16:10:42.632Z,2.10
2023-03-26T16:13:30.389Z,1.40
2023-03-26T16:16:26.927Z,1.70
2023-03-26T16:18:58.559Z,1.45
2023-03-26T16:21:31.723Z,1.90
2023-03-26T16:27:46.639Z,4.32
2023-03-26T16:30:35.858Z,2.80
2023-03-26T16:33:13.898Z,1.80
2023-03-26T16:36:05.734Z,1.90
2023-03-26T16:38:54.414Z,1.88
2023-03-26T16:41:32.787Z,2.03
2023-03-26T16:44:25.302Z,1.80
2023-03-26T16:47:08.084Z,1.83
2023-03-26T16:50:28.616Z,1.48
2023-03-26T16:53:13.578Z,1.80
2023-03-26T17:30:48.033Z,1.60
2023-03-26T17:34:13.952Z,2.08
2023-03-26T17:37:50.583Z,2.20
2023-03-26T17:41:32.590Z,2.60
2023-03-26T17:45:24.690Z,2.00
2023-03-26T17:55:09.079Z,1.80
